Time;durP1;ratioP1;P1;durP2;ratioP2;P2;SDS_P1;SDS_P2;PMS_P1;PMS_P2;Temp;Humidity;BMP_temperature;BMP_pressure;BME280_temperature;BME280_humidity;BME280_pressure;Samples;Min_cycle;Max_cycle;Signal;HPM_P1;HPM_P2
2021/12/18 00:02:10;;;;;;;0.10;0.10;;;6.20;99.90;226.50;231333.00;;;;5010076;28;20200;-74
2021/12/18 00:04:38;;;;;;;0.10;0.10;;;6.10;99.90;226.50;231333.00;;;;4992074;28;20259;-75
2021/12/18 00:07:07;;;;;;;0.00;0.00;;;6.20;99.90;226.50;231333.00;;;;4994237;28;20235;-75
2021/12/18 00:09:35;;;;;;;0.10;0.10;;;6.10;99.90;226.50;231333.00;;;;4994223;28;20255;-74
2021/12/18 00:12:04;;;;;;;0.10;0.10;;;6.10;99.90;226.50;231333.00;;;;4989421;28;20334;-75
2021/12/18 00:14:32;;;;;;;0.10;0.10;;;6.20;99.90;226.50;231333.00;;;;4992278;28;20223;-74
2021/12/18 00:17:02;;;;;;;0.10;0.10;;;6.10;99.90;226.50;231333.00;;;;4987697;28;20256;-75
2021/12/18 00:19:31;;;;;;;0.10;0.10;;;6.10;99.90;226.50;231333.00;;;;4988873;28;20248;-75
2021/12/18 00:22:00;;;;;;;0.10;0.10;;;6.10;99.90;226.50;231333.00;;;;4990183;28;20733;-75
2021/12/18 00:24:31;;;;;;;0.10;0.10;;;6.10;99.90;226.50;231333.00;;;;4992817;28;20721;-75
2021/12/18 00:26:59;;;;;;;0.10;0.10;;;6.10;99.90;226.50;231333.00;;;;4993536;28;20235;-75
2021/12/18 00:29:27;;;;;;;0.10;0.10;;;6.10;99.90;226.50;231333.00;;;;4994156;28;20705;-75
2021/12/18 00:31:55;;;;;;;0.10;0.10;;;6.10;99.90;226.50;231333.00;;;;4987057;28;20760;-74
2021/12/18 00:34:23;;;;;;;0.10;0.10;;;6.10;99.90;226.50;231333.00;;;;4994276;28;20275;-75
2021/12/18 00:36:52;;;;;;;0.10;0.10;;;6.10;99.90;226.50;231333.00;;;;4992875;28;20686;-75
2021/12/18 00:39:20;;;;;;;0.10;0.10;;;6.10;99.90;226.50;231333.00;;;;4993955;28;20259;-74
2021/12/18 00:42:07;;;;;;;0.00;0.00;;;6.10;99.90;226.50;231333.00;;;;4992685;28;20254;-75
2021/12/18 00:44:35;;;;;;;0.10;0.10;;;6.10;99.90;226.50;231333.00;;;;4990225;28;20266;-75
2021/12/18 00:47:04;;;;;;;0.10;0.10;;;6.10;99.90;226.50;231333.00;;;;4992544;28;20220;-75
2021/12/18 00:49:32;;;;;;;0.10;0.10;;;6.10;99.90;226.50;231333.00;;;;4992755;28;20296;-75
2021/12/18 00:52:01;;;;;;;0.10;0.10;;;6.10;99.90;226.50;231333.00;;;;4992832;28;20209;-74
2021/12/18 00:54:29;;;;;;;0.10;0.10;;;6.10;99.90;226.50;231333.00;;;;4992455;28;20271;-74
2021/12/18 00:56:57;;;;;;;0.10;0.10;;;6.10;99.90;226.50;231333.00;;;;4992462;28;20208;-74
2021/12/18 00:59:25;;;;;;;0.00;0.00;;;6.10;99.90;226.50;231333.00;;;;4995612;28;20201;-74
2021/12/18 01:01:53;;;;;;;0.10;0.10;;;6.10;99.90;226.50;231333.00;;;;4994325;28;20263;-73
2021/12/18 01:04:21;;;;;;;0.10;0.10;;;6.10;99.90;226.50;231333.00;;;;4995130;28;20236;-73
2021/12/18 01:06:49;;;;;;;0.10;0.10;;;6.10;99.90;226.50;231333.00;;;;4993379;28;20231;-73
2021/12/18 01:09:24;;;;;;;0.10;0.10;;;6.10;99.90;226.50;231333.00;;;;4992744;28;20255;-73
2021/12/18 01:11:52;;;;;;;0.10;0.10;;;6.10;99.90;226.50;231333.00;;;;4992615;28;20196;-74
2021/12/18 01:14:44;;;;;;;0.03;0.03;;;6.10;99.90;226.50;231333.00;;;;4992334;28;20288;-73
2021/12/18 01:22:48;;;;;;;0.10;0.10;;;6.00;99.90;226.50;231333.00;;;;4994056;28;20247;-73
2021/12/18 01:25:20;;;;;;;0.10;0.10;;;6.10;99.90;226.50;231333.00;;;;4990404;28;20559;-74
2021/12/18 01:27:49;;;;;;;0.03;0.03;;;6.10;99.90;226.50;231333.00;;;;4993589;28;20204;-74
2021/12/18 01:30:19;;;;;;;0.10;0.10;;;6.10;99.90;226.50;231333.00;;;;4993441;28;20201;-73
2021/12/18 01:32:47;;;;;;;0.00;0.00;;;6.10;99.90;226.50;231333.00;;;;4990009;28;20472;-73
2021/12/18 01:35:15;;;;;;;0.10;0.10;;;6.00;99.90;226.50;231333.00;;;;4993709;28;20256;-74
2021/12/18 01:37:44;;;;;;;0.10;0.10;;;6.10;99.90;226.50;231333.00;;;;4996159;28;20220;-76
2021/12/18 01:40:14;;;;;;;0.10;0.10;;;6.10;99.90;226.50;231333.00;;;;4994740;28;20255;-74
2021/12/18 01:45:38;;;;;;;0.00;0.00;;;6.10;99.90;226.50;231333.00;;;;4991889;28;20204;-73
2021/12/18 01:53:56;;;;;;;0.10;0.10;;;5.90;99.90;226.50;231333.00;;;;4950211;28;20282;-73
2021/12/18 01:56:27;;;;;;;0.10;0.10;;;5.80;99.90;226.50;231333.00;;;;4951857;29;20201;-74
2021/12/18 01:58:57;;;;;;;0.05;0.05;;;5.80;99.90;226.50;231333.00;;;;4971550;28;20220;-74
2021/12/18 02:01:26;;;;;;;0.10;0.10;;;5.90;99.90;226.50;231333.00;;;;4990909;28;20258;-74
2021/12/18 02:03:55;;;;;;;0.10;0.10;;;5.90;99.90;226.50;231333.00;;;;4993425;28;20283;-74
2021/12/18 02:06:24;;;;;;;0.03;0.03;;;5.90;99.90;226.50;231333.00;;;;4994278;28;20224;-74
2021/12/18 02:08:52;;;;;;;0.10;0.10;;;5.90;99.90;226.50;231333.00;;;;4987967;28;20201;-74
2021/12/18 02:11:28;;;;;;;0.00;0.00;;;5.80;99.90;226.50;231333.00;;;;4990336;28;20616;-74
2021/12/18 02:14:08;;;;;;;0.10;0.10;;;5.80;99.90;226.50;231333.00;;;;4981684;28;20278;-74
2021/12/18 02:22:17;;;;;;;0.10;0.10;;;5.70;99.90;226.50;231333.00;;;;4980604;28;20216;-74
2021/12/18 02:24:45;;;;;;;0.10;0.10;;;5.60;99.90;226.50;231333.00;;;;4986670;28;20780;-73
2021/12/18 02:27:13;;;;;;;0.10;0.10;;;5.50;99.90;226.50;231333.00;;;;4990956;28;20258;-74
2021/12/18 02:29:42;;;;;;;0.10;0.10;;;5.50;99.90;226.50;231333.00;;;;4991667;28;20599;-72
2021/12/18 02:32:12;;;;;;;0.10;0.10;;;5.60;99.90;226.50;231333.00;;;;4991387;28;20623;-73
2021/12/18 02:34:41;;;;;;;0.10;0.10;;;5.60;99.90;226.50;231333.00;;;;4990875;28;20236;-74
2021/12/18 02:37:12;;;;;;;0.00;0.00;;;5.60;99.90;226.50;231333.00;;;;4991012;28;20611;-74
2021/12/18 02:39:57;;;;;;;0.10;0.10;;;5.60;99.90;226.50;231333.00;;;;4989874;28;20200;-73
2021/12/18 02:42:25;;;;;;;0.10;0.10;;;5.70;99.90;226.50;231333.00;;;;4992043;28;20235;-74
2021/12/18 02:44:53;;;;;;;0.10;0.10;;;5.60;99.90;226.50;231333.00;;;;4991017;28;20216;-74
2021/12/18 02:47:21;;;;;;;0.10;0.10;;;5.60;99.90;226.50;231333.00;;;;4981063;28;20197;-74
2021/12/18 02:49:52;;;;;;;0.10;0.10;;;5.70;99.90;226.50;231333.00;;;;4992450;28;20250;-73
2021/12/18 02:52:28;;;;;;;0.10;0.10;;;5.70;99.90;226.50;231333.00;;;;4992940;28;20212;-74
2021/12/18 02:54:58;;;;;;;0.10;0.10;;;5.60;99.90;226.50;231333.00;;;;4994989;28;20231;-72
2021/12/18 02:57:26;;;;;;;0.00;0.00;;;5.80;99.90;226.50;231333.00;;;;4990964;28;20205;-73
2021/12/18 02:59:57;;;;;;;0.10;0.10;;;5.80;99.90;226.50;231333.00;;;;4990823;28;20243;-74
2021/12/18 03:02:26;;;;;;;0.10;0.10;;;5.90;99.90;226.50;231333.00;;;;4988640;28;20192;-73
2021/12/18 03:04:59;;;;;;;0.03;0.03;;;5.90;99.90;226.50;231333.00;;;;4992970;28;20287;-74
2021/12/18 03:07:29;;;;;;;0.00;0.00;;;5.90;99.90;226.50;231333.00;;;;4991804;28;20204;-74
2021/12/18 03:22:03;;;;;;;0.10;0.10;;;5.90;99.90;226.50;231333.00;;;;4987286;28;20238;-74
2021/12/18 03:24:28;;;;;;;0.10;0.10;;;5.90;99.90;226.50;231333.00;;;;4994626;28;20286;-74
2021/12/18 03:26:58;;;;;;;0.05;0.05;;;5.80;99.90;226.50;231333.00;;;;4995213;28;20208;-74
2021/12/18 03:29:26;;;;;;;0.10;0.10;;;5.80;99.90;226.50;231333.00;;;;4988294;28;20200;-74
2021/12/18 03:31:54;;;;;;;0.10;0.10;;;5.80;99.90;226.50;231333.00;;;;4994154;28;20633;-74
2021/12/18 03:34:22;;;;;;;0.10;0.10;;;5.80;99.90;226.50;231333.00;;;;4988216;28;20279;-74
2021/12/18 03:36:51;;;;;;;0.10;0.10;;;5.90;99.90;226.50;231333.00;;;;4992350;28;20224;-74
2021/12/18 03:39:20;;;;;;;0.10;0.10;;;5.90;99.90;226.50;231333.00;;;;4987776;28;20192;-74
2021/12/18 03:41:51;;;;;;;0.10;0.10;;;5.80;99.90;226.50;231333.00;;;;4993965;28;20192;-73
2021/12/18 03:44:21;;;;;;;0.10;0.10;;;5.70;99.90;226.50;231333.00;;;;4994154;28;20259;-74
2021/12/18 03:46:50;;;;;;;0.10;0.10;;;5.80;99.90;226.50;231333.00;;;;4993880;28;20197;-74
2021/12/18 03:49:18;;;;;;;0.10;0.10;;;5.90;99.90;226.50;231333.00;;;;4988084;28;20254;-74
2021/12/18 03:51:46;;;;;;;0.10;0.10;;;5.80;99.90;226.50;231333.00;;;;4994010;28;20193;-74
2021/12/18 03:54:15;;;;;;;0.10;0.10;;;5.80;99.90;226.50;231333.00;;;;4991048;28;20296;-74
2021/12/18 03:56:43;;;;;;;0.10;0.10;;;5.80;99.90;226.50;231333.00;;;;4985817;28;20251;-74
2021/12/18 03:59:11;;;;;;;0.10;0.10;;;5.80;99.90;226.50;231333.00;;;;4994674;28;20201;-74
2021/12/18 04:01:40;;;;;;;0.10;0.10;;;5.70;99.90;226.50;231333.00;;;;4994292;28;20670;-75
2021/12/18 04:04:08;;;;;;;0.10;0.10;;;5.80;99.90;226.50;231333.00;;;;4994512;28;20571;-74
2021/12/18 04:06:39;;;;;;;0.10;0.10;;;5.90;99.90;226.50;231333.00;;;;4994218;28;20683;-74
2021/12/18 04:09:07;;;;;;;0.10;0.10;;;5.80;99.90;226.50;231333.00;;;;4993435;28;20578;-74
2021/12/18 04:11:35;;;;;;;0.10;0.10;;;5.80;99.90;226.50;231333.00;;;;4993202;28;20200;-74
2021/12/18 04:14:04;;;;;;;0.10;0.10;;;5.70;99.90;226.50;231333.00;;;;4993498;28;20701;-74
2021/12/18 04:16:32;;;;;;;0.10;0.10;;;5.70;99.90;226.50;231333.00;;;;4992893;28;20220;-75
2021/12/18 04:19:01;;;;;;;0.08;0.08;;;5.70;99.90;226.50;231333.00;;;;4993430;28;20196;-74
2021/12/18 04:21:30;;;;;;;0.10;0.10;;;5.70;99.90;226.50;231333.00;;;;4993918;28;20606;-74
2021/12/18 04:23:58;;;;;;;0.10;0.10;;;5.70;99.90;226.50;231333.00;;;;4993629;28;20215;-74
2021/12/18 04:26:27;;;;;;;0.10;0.10;;;5.70;99.90;226.50;231333.00;;;;4993569;28;20744;-74
2021/12/18 04:28:54;;;;;;;0.10;0.10;;;5.70;99.90;226.50;231333.00;;;;4994503;28;20224;-74
2021/12/18 04:31:22;;;;;;;0.10;0.10;;;5.60;99.90;226.50;231333.00;;;;4996949;28;20255;-74
2021/12/18 04:33:51;;;;;;;0.10;0.10;;;5.60;99.90;226.50;231333.00;;;;4994680;28;20235;-74
2021/12/18 04:36:21;;;;;;;0.00;0.00;;;5.70;99.90;226.50;231333.00;;;;4993309;28;20258;-74
2021/12/18 04:38:49;;;;;;;0.10;0.10;;;5.70;99.90;226.50;231333.00;;;;4994196;28;20271;-74
2021/12/18 04:41:22;;;;;;;0.00;0.00;;;5.80;99.90;226.50;231333.00;;;;4993836;28;20204;-74
2021/12/18 04:43:52;;;;;;;0.10;0.10;;;5.80;99.90;226.50;231333.00;;;;4988304;28;20208;-74
2021/12/18 04:46:21;;;;;;;0.10;0.10;;;5.80;99.90;226.50;231333.00;;;;4993253;28;20200;-73
2021/12/18 04:48:48;;;;;;;0.10;0.10;;;5.70;99.90;226.50;231333.00;;;;4987739;28;20200;-74
2021/12/18 04:51:17;;;;;;;0.00;0.00;;;5.50;99.90;226.50;231333.00;;;;4994969;28;20228;-74
2021/12/18 04:53:46;;;;;;;0.05;0.05;;;5.60;99.90;226.50;231333.00;;;;4995732;28;20208;-73
2021/12/18 04:56:14;;;;;;;0.10;0.10;;;5.50;99.90;226.50;231333.00;;;;4996512;28;20228;-73
2021/12/18 04:58:42;;;;;;;0.10;0.10;;;5.50;99.90;226.50;231333.00;;;;4992950;28;20204;-74
2021/12/18 05:01:10;;;;;;;0.10;0.10;;;5.50;99.90;226.50;231333.00;;;;4993422;28;20258;-73
2021/12/18 05:03:40;;;;;;;0.00;0.00;;;5.50;99.90;226.50;231333.00;;;;4991053;28;20227;-72
2021/12/18 05:06:08;;;;;;;0.00;0.00;;;5.50;99.90;226.50;231333.00;;;;5009608;28;20199;-74
2021/12/18 05:08:36;;;;;;;0.00;0.00;;;5.50;99.90;226.50;231333.00;;;;4996278;28;20205;-74
2021/12/18 05:11:05;;;;;;;0.10;0.10;;;5.50;99.90;226.50;231333.00;;;;4990415;28;20200;-74
2021/12/18 05:13:33;;;;;;;0.03;0.03;;;5.50;99.90;226.50;231333.00;;;;4990161;28;20255;-74
2021/12/18 05:16:01;;;;;;;0.10;0.10;;;5.50;99.90;226.50;231333.00;;;;4994146;28;20228;-74
2021/12/18 05:18:29;;;;;;;0.00;0.00;;;5.60;99.90;226.50;231333.00;;;;4994775;28;20204;-74
2021/12/18 05:20:57;;;;;;;0.00;0.00;;;5.60;99.90;226.50;231333.00;;;;4992358;28;20574;-73
2021/12/18 05:23:25;;;;;;;0.10;0.10;;;5.50;99.90;226.50;231333.00;;;;4992500;28;20221;-74
2021/12/18 05:25:53;;;;;;;0.08;0.08;;;5.50;99.90;226.50;231333.00;;;;4991733;28;20279;-73
2021/12/18 05:28:23;;;;;;;0.10;0.10;;;5.50;99.90;226.50;231333.00;;;;4991659;28;20192;-74
2021/12/18 05:30:51;;;;;;;0.10;0.10;;;5.60;99.90;226.50;231333.00;;;;4992561;28;20625;-73
2021/12/18 05:33:19;;;;;;;0.10;0.10;;;5.50;99.90;226.50;231333.00;;;;4991913;28;20281;-74
2021/12/18 05:35:47;;;;;;;0.10;0.10;;;5.50;99.90;226.50;231333.00;;;;4988862;28;20213;-73
2021/12/18 05:38:15;;;;;;;0.10;0.10;;;5.50;99.90;226.50;231333.00;;;;4987150;28;20205;-73
2021/12/18 05:40:43;;;;;;;0.10;0.10;;;5.50;99.90;226.50;231333.00;;;;4991696;28;20254;-73
2021/12/18 05:43:11;;;;;;;0.00;0.00;;;5.50;99.90;226.50;231333.00;;;;4991678;28;20235;-73
2021/12/18 05:45:40;;;;;;;0.10;0.10;;;5.50;99.90;226.50;231333.00;;;;4991939;28;20204;-74
2021/12/18 05:48:08;;;;;;;0.10;0.10;;;5.50;99.90;226.50;231333.00;;;;4991940;28;20258;-74
2021/12/18 05:50:36;;;;;;;0.00;0.00;;;5.60;99.90;226.50;231333.00;;;;4993659;28;20193;-73
2021/12/18 05:53:04;;;;;;;0.10;0.10;;;5.60;99.90;226.50;231333.00;;;;4983782;28;20220;-73
2021/12/18 05:55:33;;;;;;;0.10;0.10;;;5.70;99.90;226.50;231333.00;;;;5009405;28;20257;-74
2021/12/18 05:58:01;;;;;;;0.10;0.10;;;5.70;99.90;226.50;231333.00;;;;4996163;28;20258;-73
2021/12/18 06:00:29;;;;;;;0.10;0.10;;;5.70;99.90;226.50;231333.00;;;;4995018;28;20196;-73
2021/12/18 06:02:58;;;;;;;0.10;0.10;;;5.70;99.90;226.50;231333.00;;;;4994046;28;20201;-74
2021/12/18 06:05:26;;;;;;;0.10;0.10;;;5.70;99.90;226.50;231333.00;;;;4994421;28;20208;-73
2021/12/18 06:07:56;;;;;;;0.10;0.10;;;5.80;99.90;226.50;231333.00;;;;4998942;28;20196;-73
2021/12/18 06:10:28;;;;;;;0.10;0.10;;;5.80;99.90;226.50;231333.00;;;;4994029;28;20231;-73
2021/12/18 06:12:59;;;;;;;0.10;0.10;;;5.80;99.90;226.50;231333.00;;;;4998659;28;20204;-74
2021/12/18 06:15:27;;;;;;;0.10;0.10;;;5.70;99.90;226.50;231333.00;;;;4992530;28;20266;-74
2021/12/18 06:17:56;;;;;;;0.00;0.00;;;5.80;99.90;226.50;231333.00;;;;4991044;28;20192;-74
2021/12/18 06:20:28;;;;;;;0.10;0.10;;;5.80;99.90;226.50;231333.00;;;;4989853;28;20692;-74
2021/12/18 06:22:57;;;;;;;0.10;0.10;;;5.80;99.90;226.50;231333.00;;;;4985951;28;20279;-74
2021/12/18 06:25:26;;;;;;;0.03;0.03;;;5.90;99.90;226.50;231333.00;;;;4992289;28;20251;-74
2021/12/18 06:27:54;;;;;;;0.10;0.10;;;5.90;99.90;226.50;231333.00;;;;4992056;28;20666;-74
2021/12/18 06:30:22;;;;;;;0.10;0.10;;;5.80;99.90;226.50;231333.00;;;;4986368;28;20205;-74
2021/12/18 06:32:49;;;;;;;0.10;0.10;;;5.70;99.90;226.50;231333.00;;;;4990790;28;20607;-74
2021/12/18 06:35:18;;;;;;;0.10;0.10;;;5.80;99.90;226.50;231333.00;;;;4992491;28;20255;-74
2021/12/18 06:37:47;;;;;;;0.10;0.10;;;5.80;99.90;226.50;231333.00;;;;4991877;28;20724;-73
2021/12/18 06:40:20;;;;;;;0.10;0.10;;;5.80;99.90;226.50;231333.00;;;;4992652;28;20214;-73
2021/12/18 06:42:48;;;;;;;0.10;0.10;;;5.70;99.90;226.50;231333.00;;;;4990428;28;20207;-73
2021/12/18 06:45:16;;;;;;;0.10;0.10;;;5.80;99.90;226.50;231333.00;;;;4995080;28;20682;-73
2021/12/18 06:47:44;;;;;;;0.00;0.00;;;5.80;99.90;226.50;231333.00;;;;4993209;28;20208;-73
2021/12/18 06:50:12;;;;;;;0.10;0.10;;;5.80;99.90;226.50;231333.00;;;;4994679;28;20213;-73
2021/12/18 06:52:40;;;;;;;0.10;0.10;;;5.80;99.90;226.50;231333.00;;;;4992617;28;20238;-73
2021/12/18 06:55:10;;;;;;;0.00;0.00;;;5.80;99.90;226.50;231333.00;;;;4994752;28;20251;-73
2021/12/18 06:57:38;;;;;;;0.00;0.00;;;5.70;99.90;226.50;231333.00;;;;4994316;28;20224;-73
2021/12/18 07:00:11;;;;;;;0.10;0.10;;;5.60;99.90;226.50;231333.00;;;;4994873;28;20200;-73
2021/12/18 07:02:40;;;;;;;0.10;0.10;;;5.60;99.90;226.50;231333.00;;;;4994268;28;20212;-73
2021/12/18 07:05:10;;;;;;;0.10;0.10;;;5.50;99.90;226.50;231333.00;;;;4989954;28;20213;-74
2021/12/18 07:07:39;;;;;;;0.10;0.10;;;5.60;99.90;226.50;231333.00;;;;4993065;28;20243;-74
2021/12/18 07:10:13;;;;;;;0.10;0.10;;;5.50;99.90;226.50;231333.00;;;;4994986;28;20239;-73
2021/12/18 07:12:42;;;;;;;0.10;0.10;;;5.60;99.90;226.50;231333.00;;;;4987280;28;20208;-74
2021/12/18 07:15:12;;;;;;;0.10;0.10;;;5.50;99.90;226.50;231333.00;;;;4990506;28;20659;-74
2021/12/18 07:17:40;;;;;;;0.10;0.10;;;5.50;99.90;226.50;231333.00;;;;4993231;28;20216;-74
2021/12/18 07:20:12;;;;;;;0.10;0.10;;;5.40;99.90;226.50;231333.00;;;;4994553;28;20189;-74
2021/12/18 07:22:40;;;;;;;0.00;0.00;;;5.30;99.90;226.50;231333.00;;;;4994021;28;20200;-74
2021/12/18 07:25:11;;;;;;;0.10;0.10;;;5.30;99.90;226.50;231333.00;;;;4979470;28;20212;-74
2021/12/18 07:27:39;;;;;;;0.10;0.10;;;5.30;99.90;226.50;231333.00;;;;4994192;28;20631;-74
2021/12/18 07:30:10;;;;;;;0.10;0.10;;;5.30;99.90;226.50;231333.00;;;;4988970;28;20201;-74
2021/12/18 07:32:38;;;;;;;0.10;0.10;;;5.30;99.90;226.50;231333.00;;;;4986160;28;20200;-73
2021/12/18 07:35:09;;;;;;;0.10;0.10;;;5.20;99.90;226.50;231333.00;;;;4988979;28;20753;-74
2021/12/18 07:37:38;;;;;;;0.05;0.05;;;5.20;99.90;226.50;231333.00;;;;4987797;28;20229;-74
2021/12/18 07:40:10;;;;;;;0.10;0.10;;;5.20;99.90;226.50;231333.00;;;;5015626;28;20546;-74
2021/12/18 07:42:38;;;;;;;0.10;0.10;;;5.10;99.90;226.50;231333.00;;;;4984126;28;20212;-74
2021/12/18 07:45:09;;;;;;;0.10;0.10;;;5.00;99.90;226.50;231333.00;;;;4980708;28;20243;-74
2021/12/18 07:47:37;;;;;;;0.03;0.03;;;5.00;99.90;226.50;231333.00;;;;4986849;28;20200;-74
2021/12/18 07:50:12;;;;;;;0.10;0.10;;;5.00;99.90;226.50;231333.00;;;;4986911;28;20660;-74
2021/12/18 07:52:40;;;;;;;0.10;0.10;;;4.90;99.90;226.50;231333.00;;;;4983302;28;20201;-73
2021/12/18 07:55:10;;;;;;;0.10;0.10;;;5.00;99.90;226.50;231333.00;;;;4985427;28;20239;-74
2021/12/18 07:57:38;;;;;;;0.10;0.10;;;5.00;99.90;226.50;231333.00;;;;4986492;28;20283;-73
2021/12/18 08:00:11;;;;;;;0.10;0.10;;;4.90;99.90;226.50;231333.00;;;;4987291;28;20204;-74
2021/12/18 08:02:39;;;;;;;0.10;0.10;;;4.90;99.90;226.50;231333.00;;;;4988693;28;20221;-75
2021/12/18 08:05:09;;;;;;;0.10;0.10;;;5.00;99.90;226.50;231333.00;;;;4977971;28;20319;-74
2021/12/18 08:07:37;;;;;;;0.10;0.10;;;5.00;99.90;226.50;231333.00;;;;4988254;28;20205;-74
2021/12/18 08:10:07;;;;;;;0.10;0.10;;;4.90;99.90;226.50;231333.00;;;;4984307;28;20574;-74
2021/12/18 08:12:36;;;;;;;0.10;0.10;;;5.00;99.90;226.50;231333.00;;;;4993202;28;20639;-74
2021/12/18 08:15:06;;;;;;;0.10;0.10;;;5.00;99.90;226.50;231333.00;;;;4987800;28;20220;-74
2021/12/18 08:17:35;;;;;;;0.10;0.10;;;4.90;99.90;226.50;231333.00;;;;4981866;28;20217;-74
2021/12/18 08:20:05;;;;;;;0.10;0.10;;;4.90;99.90;226.50;231333.00;;;;4987331;28;20204;-74
2021/12/18 08:22:33;;;;;;;0.10;0.10;;;4.90;99.90;226.50;231333.00;;;;4984666;28;20209;-74
2021/12/18 08:25:02;;;;;;;0.10;0.10;;;4.90;99.90;226.50;231333.00;;;;4983220;28;20212;-74
2021/12/18 08:27:31;;;;;;;0.10;0.10;;;4.90;99.90;226.50;231333.00;;;;4991307;28;20208;-73
2021/12/18 08:30:00;;;;;;;0.10;0.10;;;5.00;99.90;226.50;231333.00;;;;4991984;28;20618;-74
2021/12/18 08:32:30;;;;;;;0.10;0.10;;;5.10;99.90;226.50;231333.00;;;;4983172;28;20205;-74
2021/12/18 08:34:58;;;;;;;0.10;0.10;;;5.10;99.90;226.50;231333.00;;;;4979285;28;20283;-74
2021/12/18 08:37:26;;;;;;;0.10;0.10;;;5.10;99.90;226.50;231333.00;;;;4990192;28;20228;-74
2021/12/18 08:39:54;;;;;;;0.10;0.10;;;5.20;99.90;226.50;231333.00;;;;4988174;28;20681;-73
2021/12/18 08:42:22;;;;;;;0.10;0.10;;;5.20;99.90;226.50;231333.00;;;;4989914;28;20710;-74
2021/12/18 08:44:50;;;;;;;0.10;0.10;;;5.10;99.90;226.50;231333.00;;;;4984206;28;20217;-74
2021/12/18 08:47:20;;;;;;;0.10;0.10;;;5.00;99.90;226.50;231333.00;;;;4979285;28;20208;-73
2021/12/18 08:49:48;;;;;;;0.10;0.10;;;5.00;99.90;226.50;231333.00;;;;4993788;28;20197;-73
2021/12/18 08:52:16;;;;;;;0.10;0.10;;;5.10;99.90;226.50;231333.00;;;;4983308;28;20232;-73
2021/12/18 08:54:44;;;;;;;0.10;0.10;;;5.00;99.90;226.50;231333.00;;;;4990580;28;20665;-73
2021/12/18 08:57:12;;;;;;;0.10;0.10;;;5.00;99.90;226.50;231333.00;;;;4992244;28;20243;-73
2021/12/18 08:59:40;;;;;;;0.10;0.10;;;5.00;99.90;226.50;231333.00;;;;4981876;28;20189;-73
2021/12/18 09:02:10;;;;;;;0.10;0.10;;;5.00;99.90;226.50;231333.00;;;;4988388;28;20670;-74
2021/12/18 09:04:40;;;;;;;0.10;0.10;;;5.00;99.90;226.50;231333.00;;;;4993633;28;20645;-73
2021/12/18 09:07:09;;;;;;;0.10;0.10;;;5.10;99.90;226.50;231333.00;;;;4984078;28;20224;-74
2021/12/18 09:09:39;;;;;;;0.10;0.10;;;5.10;99.90;226.50;231333.00;;;;5003116;28;20251;-73
2021/12/18 09:12:11;;;;;;;0.10;0.10;;;5.20;99.90;226.50;231333.00;;;;4988336;28;20208;-73
2021/12/18 09:14:40;;;;;;;0.10;0.10;;;5.20;99.90;226.50;231333.00;;;;4975094;28;20225;-73
2021/12/18 09:17:10;;;;;;;0.10;0.10;;;5.10;99.90;226.50;231333.00;;;;4984652;28;20666;-74
2021/12/18 09:19:40;;;;;;;0.08;0.08;;;5.00;99.90;226.50;231333.00;;;;4997420;28;20187;-74
2021/12/18 09:22:09;;;;;;;0.10;0.10;;;5.00;99.90;226.50;231333.00;;;;4998179;28;20841;-74
2021/12/18 09:24:38;;;;;;;0.10;0.10;;;5.00;99.90;226.50;231333.00;;;;4982178;28;20999;-74
2021/12/18 09:27:07;;;;;;;0.10;0.10;;;5.00;99.90;226.50;231333.00;;;;4987183;28;20196;-74
2021/12/18 09:29:37;;;;;;;0.10;0.10;;;5.00;99.90;226.50;231333.00;;;;4986360;28;20204;-74
2021/12/18 09:32:05;;;;;;;0.10;0.10;;;4.90;99.90;226.50;231333.00;;;;4992699;28;20740;-74
2021/12/18 09:34:34;;;;;;;0.10;0.10;;;4.90;99.90;226.50;231333.00;;;;4993192;28;20312;-75
2021/12/18 09:37:04;;;;;;;0.10;0.10;;;4.90;99.90;226.50;231333.00;;;;4992600;28;20234;-74
2021/12/18 09:39:33;;;;;;;0.10;0.10;;;4.90;99.90;226.50;231333.00;;;;4990214;28;20314;-76
2021/12/18 09:42:01;;;;;;;0.10;0.10;;;4.90;99.90;226.50;231333.00;;;;4988676;28;20259;-75
2021/12/18 09:44:33;;;;;;;0.10;0.10;;;4.90;99.90;226.50;231333.00;;;;4989463;28;20219;-74
2021/12/18 09:47:03;;;;;;;0.10;0.10;;;4.90;99.90;226.50;231333.00;;;;4994337;28;20221;-74
2021/12/18 09:49:32;;;;;;;0.10;0.10;;;5.00;99.90;226.50;231333.00;;;;4991466;28;20196;-74
2021/12/18 09:52:01;;;;;;;0.10;0.10;;;5.10;99.90;226.50;231333.00;;;;4991732;28;20308;-74
2021/12/18 09:54:31;;;;;;;0.10;0.10;;;5.00;99.90;226.50;231333.00;;;;4992778;28;20633;-75
2021/12/18 09:56:59;;;;;;;0.10;0.10;;;5.00;99.90;226.50;231333.00;;;;4999450;28;20211;-74
2021/12/18 09:59:27;;;;;;;0.10;0.10;;;5.00;99.90;226.50;231333.00;;;;4997151;28;20627;-75
2021/12/18 10:01:55;;;;;;;0.10;0.10;;;5.00;99.90;226.50;231333.00;;;;4979025;28;20196;-74
2021/12/18 10:04:31;;;;;;;0.10;0.10;;;5.10;99.90;226.50;231333.00;;;;4986441;28;20229;-74
2021/12/18 10:07:02;;;;;;;0.10;0.10;;;5.10;99.90;226.50;231333.00;;;;4987540;28;20246;-74
2021/12/18 10:09:35;;;;;;;0.10;0.10;;;5.10;99.90;226.50;231333.00;;;;4992346;28;20689;-74
2021/12/18 10:12:14;;;;;;;0.10;0.10;;;5.20;99.90;226.50;231333.00;;;;4985818;28;21413;-74
2021/12/18 10:14:47;;;;;;;0.10;0.10;;;5.10;99.90;226.50;231333.00;;;;4991930;28;20722;-76
2021/12/18 10:17:24;;;;;;;0.10;0.10;;;5.00;99.90;226.50;231333.00;;;;4991770;28;20200;-74
2021/12/18 10:19:55;;;;;;;0.10;0.10;;;5.00;99.90;226.50;231333.00;;;;4992498;28;20232;-75
2021/12/18 10:22:24;;;;;;;0.10;0.10;;;5.10;99.90;226.50;231333.00;;;;4993002;28;20599;-75
2021/12/18 10:25:07;;;;;;;0.10;0.10;;;5.00;99.90;226.50;231333.00;;;;4987368;28;20216;-75
2021/12/18 10:27:37;;;;;;;0.10;0.10;;;5.00;99.90;226.50;231333.00;;;;4977836;28;20205;-75
2021/12/18 10:30:16;;;;;;;0.10;0.10;;;5.20;99.90;226.50;231333.00;;;;4992976;28;20196;-75
2021/12/18 10:32:57;;;;;;;0.10;0.10;;;5.20;99.90;226.50;231333.00;;;;4991406;28;20266;-76
2021/12/18 10:35:43;;;;;;;0.10;0.10;;;5.20;99.90;226.50;231333.00;;;;4990790;28;20555;-75
2021/12/18 10:38:47;;;;;;;0.10;0.10;;;5.20;99.90;226.50;231333.00;;;;4984660;28;20248;-76
2021/12/18 10:41:26;;;;;;;0.10;0.10;;;5.30;99.90;226.50;231333.00;;;;4991205;28;20200;-76
2021/12/18 10:44:04;;;;;;;0.10;0.10;;;5.30;99.90;226.50;231333.00;;;;4992084;28;20224;-75
2021/12/18 10:46:35;;;;;;;0.10;0.10;;;5.20;99.90;226.50;231333.00;;;;4988523;28;20254;-75
2021/12/18 10:49:06;;;;;;;0.10;0.10;;;5.20;99.90;226.50;231333.00;;;;4998166;28;20231;-76
2021/12/18 10:51:36;;;;;;;0.10;0.10;;;5.30;99.90;226.50;231333.00;;;;4994313;28;20236;-75
2021/12/18 10:54:09;;;;;;;0.10;0.10;;;5.20;99.90;226.50;231333.00;;;;5001232;28;20220;-75
2021/12/18 10:56:42;;;;;;;0.10;0.10;;;5.20;99.90;226.50;231333.00;;;;4999652;28;20200;-75
2021/12/18 10:59:22;;;;;;;0.10;0.10;;;5.20;99.90;226.50;231333.00;;;;4999642;28;20267;-75
2021/12/18 11:01:52;;;;;;;0.10;0.10;;;5.30;99.90;226.50;231333.00;;;;4984847;28;20197;-75
2021/12/18 11:04:25;;;;;;;0.00;0.00;;;5.30;99.90;226.50;231333.00;;;;4986779;28;20232;-76
2021/12/18 11:06:54;;;;;;;0.10;0.10;;;5.40;99.90;226.50;231333.00;;;;4991035;28;20816;-75
2021/12/18 11:09:30;;;;;;;0.10;0.10;;;5.30;99.90;226.50;231333.00;;;;4985995;28;20200;-75
2021/12/18 11:14:48;;;;;;;0.10;0.10;;;5.20;99.90;226.50;231333.00;;;;4986522;28;20215;-75
2021/12/18 11:17:17;;;;;;;0.10;0.10;;;5.10;99.90;226.50;231333.00;;;;4986766;28;20243;-76
2021/12/18 11:19:45;;;;;;;0.10;0.10;;;5.10;99.90;226.50;231333.00;;;;4983127;28;20255;-75
2021/12/18 11:22:16;;;;;;;0.10;0.10;;;5.10;99.90;226.50;231333.00;;;;4989828;28;20231;-75
2021/12/18 11:25:01;;;;;;;0.10;0.10;;;5.10;99.90;226.50;231333.00;;;;4985233;28;20263;-76
2021/12/18 11:27:34;;;;;;;0.10;0.10;;;5.10;99.90;226.50;231333.00;;;;4985705;28;20192;-76
2021/12/18 11:30:07;;;;;;;0.10;0.10;;;5.10;99.90;226.50;231333.00;;;;4993126;28;20204;-75
2021/12/18 11:32:39;;;;;;;0.10;0.10;;;5.20;99.90;226.50;231333.00;;;;4994612;28;20686;-75
2021/12/18 11:35:11;;;;;;;0.10;0.10;;;5.20;99.90;226.50;231333.00;;;;5001420;28;20228;-75